< < Back
Terminal Aerodrome Forecast


Current Version              Previous Versions:   1  2  3  4  5  6  7  8  9  

Terminal Aerodrome Forecast

085
FTAK31 PAJN 311000 AAA
TAFAGS
TAF AMD
PAGS 311000Z 3110/0106 VRB03KT 3SM -RA BR BKN005 OVC010
      TEMPO 3110/3114 1SM -RA BR BKN003
     FM311400 VRB03KT P6SM -RA VCFG SCT025 OVC050
     FM311800 30005KT P6SM VCSH OVC050
      AMD LTD TO CLD VIS AND WIND=



Latest METAR

206
SAUS70 KWBC 311300 RRI
MTRAGS
METAR KAGS 311253Z 03003KT 10SM BKN110 27/24 A2995 RMK AO2 SLP139
T02720239


USA.gov is the U.S. government's official web portal to all federal, state and local government web resources and services.